sensor_id;sensor_type;location;lat;lon;timestamp;P1;durP1;ratioP1;P2;durP2;ratioP2
20861;SDS011;10591;52.532;13.348;2024-03-22T00:00:17;15.07;;;12.17;;
20861;SDS011;10591;52.532;13.348;2024-03-22T00:02:48;15.90;;;12.65;;
20861;SDS011;10591;52.532;13.348;2024-03-22T00:05:18;15.20;;;12.50;;
20861;SDS011;10591;52.532;13.348;2024-03-22T00:07:50;15.87;;;12.63;;
20861;SDS011;10591;52.532;13.348;2024-03-22T00:10:21;15.93;;;12.50;;
20861;SDS011;10591;52.532;13.348;2024-03-22T00:12:52;15.45;;;12.55;;
20861;SDS011;10591;52.532;13.348;2024-03-22T00:15:23;16.67;;;12.85;;
20861;SDS011;10591;52.532;13.348;2024-03-22T00:17:55;15.25;;;12.50;;
20861;SDS011;10591;52.532;13.348;2024-03-22T00:20:25;16.10;;;12.37;;
20861;SDS011;10591;52.532;13.348;2024-03-22T00:22:56;17.25;;;12.95;;
20861;SDS011;10591;52.532;13.348;2024-03-22T00:25:27;16.10;;;12.07;;
20861;SDS011;10591;52.532;13.348;2024-03-22T00:27:57;15.03;;;12.33;;
20861;SDS011;10591;52.532;13.348;2024-03-22T00:30:28;15.38;;;12.47;;
20861;SDS011;10591;52.532;13.348;2024-03-22T00:32:58;16.32;;;11.80;;
20861;SDS011;10591;52.532;13.348;2024-03-22T00:35:29;15.65;;;12.58;;
20861;SDS011;10591;52.532;13.348;2024-03-22T00:38:00;16.27;;;12.88;;
20861;SDS011;10591;52.532;13.348;2024-03-22T00:40:30;15.65;;;12.65;;
20861;SDS011;10591;52.532;13.348;2024-03-22T00:43:01;15.00;;;12.33;;
20861;SDS011;10591;52.532;13.348;2024-03-22T00:45:32;19.60;;;14.03;;
20861;SDS011;10591;52.532;13.348;2024-03-22T00:48:02;15.25;;;11.95;;
20861;SDS011;10591;52.532;13.348;2024-03-22T00:50:34;16.23;;;12.68;;
20861;SDS011;10591;52.532;13.348;2024-03-22T00:53:05;15.95;;;12.00;;
20861;SDS011;10591;52.532;13.348;2024-03-22T00:55:36;18.32;;;12.95;;
20861;SDS011;10591;52.532;13.348;2024-03-22T00:58:07;17.65;;;13.68;;
20861;SDS011;10591;52.532;13.348;2024-03-22T01:00:38;16.85;;;12.60;;
20861;SDS011;10591;52.532;13.348;2024-03-22T01:03:09;19.37;;;13.78;;
20861;SDS011;10591;52.532;13.348;2024-03-22T01:05:40;17.32;;;13.85;;
20861;SDS011;10591;52.532;13.348;2024-03-22T01:08:11;20.05;;;13.93;;
20861;SDS011;10591;52.532;13.348;2024-03-22T01:10:41;18.20;;;14.25;;
20861;SDS011;10591;52.532;13.348;2024-03-22T01:13:12;18.42;;;14.03;;
20861;SDS011;10591;52.532;13.348;2024-03-22T01:15:43;18.80;;;13.88;;
20861;SDS011;10591;52.532;13.348;2024-03-22T01:18:15;21.93;;;15.05;;
20861;SDS011;10591;52.532;13.348;2024-03-22T01:20:45;19.62;;;13.70;;
20861;SDS011;10591;52.532;13.348;2024-03-22T01:23:16;18.75;;;13.83;;
20861;SDS011;10591;52.532;13.348;2024-03-22T01:25:47;19.25;;;14.15;;
20861;SDS011;10591;52.532;13.348;2024-03-22T01:28:18;19.48;;;13.53;;
20861;SDS011;10591;52.532;13.348;2024-03-22T01:30:50;20.55;;;14.18;;
20861;SDS011;10591;52.532;13.348;2024-03-22T01:33:21;19.05;;;14.23;;
20861;SDS011;10591;52.532;13.348;2024-03-22T01:35:51;21.17;;;14.58;;
20861;SDS011;10591;52.532;13.348;2024-03-22T01:38:23;19.67;;;13.83;;
20861;SDS011;10591;52.532;13.348;2024-03-22T01:40:53;21.40;;;13.80;;
20861;SDS011;10591;52.532;13.348;2024-03-22T01:43:24;20.30;;;14.05;;
20861;SDS011;10591;52.532;13.348;2024-03-22T01:45:54;20.62;;;14.03;;
20861;SDS011;10591;52.532;13.348;2024-03-22T01:48:25;20.35;;;13.53;;
20861;SDS011;10591;52.532;13.348;2024-03-22T01:50:56;19.17;;;13.60;;
20861;SDS011;10591;52.532;13.348;2024-03-22T01:53:26;20.92;;;14.05;;
20861;SDS011;10591;52.532;13.348;2024-03-22T01:55:58;18.25;;;13.38;;
20861;SDS011;10591;52.532;13.348;2024-03-22T01:58:28;19.35;;;13.03;;
20861;SDS011;10591;52.532;13.348;2024-03-22T02:00:59;18.02;;;13.05;;
20861;SDS011;10591;52.532;13.348;2024-03-22T02:03:30;19.70;;;13.22;;
20861;SDS011;10591;52.532;13.348;2024-03-22T02:06:01;19.35;;;13.38;;
20861;SDS011;10591;52.532;13.348;2024-03-22T02:08:32;18.12;;;13.05;;
20861;SDS011;10591;52.532;13.348;2024-03-22T02:11:02;19.70;;;13.55;;
20861;SDS011;10591;52.532;13.348;2024-03-22T02:13:34;19.50;;;13.18;;
20861;SDS011;10591;52.532;13.348;2024-03-22T02:16:05;20.80;;;13.90;;
20861;SDS011;10591;52.532;13.348;2024-03-22T02:18:36;18.45;;;13.32;;
20861;SDS011;10591;52.532;13.348;2024-03-22T02:21:06;19.48;;;13.28;;
20861;SDS011;10591;52.532;13.348;2024-03-22T02:23:38;21.25;;;13.65;;
20861;SDS011;10591;52.532;13.348;2024-03-22T02:26:09;19.00;;;13.15;;
20861;SDS011;10591;52.532;13.348;2024-03-22T02:28:40;18.77;;;13.25;;
20861;SDS011;10591;52.532;13.348;2024-03-22T02:31:11;21.50;;;13.25;;
20861;SDS011;10591;52.532;13.348;2024-03-22T02:33:43;19.25;;;13.20;;
20861;SDS011;10591;52.532;13.348;2024-03-22T02:36:14;18.40;;;13.43;;
20861;SDS011;10591;52.532;13.348;2024-03-22T02:38:44;18.52;;;12.60;;
20861;SDS011;10591;52.532;13.348;2024-03-22T02:41:15;17.52;;;12.80;;
20861;SDS011;10591;52.532;13.348;2024-03-22T02:43:46;20.82;;;12.93;;
20861;SDS011;10591;52.532;13.348;2024-03-22T02:46:16;19.15;;;13.70;;
20861;SDS011;10591;52.532;13.348;2024-03-22T02:48:48;18.90;;;13.38;;
20861;SDS011;10591;52.532;13.348;2024-03-22T02:51:18;17.62;;;12.63;;
20861;SDS011;10591;52.532;13.348;2024-03-22T02:53:50;17.95;;;12.60;;
20861;SDS011;10591;52.532;13.348;2024-03-22T02:56:20;17.52;;;12.88;;
20861;SDS011;10591;52.532;13.348;2024-03-22T02:58:51;17.50;;;12.68;;
20861;SDS011;10591;52.532;13.348;2024-03-22T03:01:22;18.32;;;12.35;;
20861;SDS011;10591;52.532;13.348;2024-03-22T03:03:52;17.98;;;12.23;;
20861;SDS011;10591;52.532;13.348;2024-03-22T03:06:23;19.15;;;12.28;;
20861;SDS011;10591;52.532;13.348;2024-03-22T03:08:54;19.60;;;13.18;;
20861;SDS011;10591;52.532;13.348;2024-03-22T03:11:24;19.23;;;13.00;;
20861;SDS011;10591;52.532;13.348;2024-03-22T03:13:55;19.80;;;12.58;;
20861;SDS011;10591;52.532;13.348;2024-03-22T03:16:25;18.07;;;12.78;;
20861;SDS011;10591;52.532;13.348;2024-03-22T03:18:57;17.70;;;12.53;;
20861;SDS011;10591;52.532;13.348;2024-03-22T03:21:29;19.07;;;12.45;;
20861;SDS011;10591;52.532;13.348;2024-03-22T03:24:01;17.77;;;12.55;;
20861;SDS011;10591;52.532;13.348;2024-03-22T03:26:31;19.10;;;12.68;;
20861;SDS011;10591;52.532;13.348;2024-03-22T03:29:02;19.07;;;12.28;;
20861;SDS011;10591;52.532;13.348;2024-03-22T03:31:32;18.65;;;12.07;;
20861;SDS011;10591;52.532;13.348;2024-03-22T03:34:03;17.85;;;12.37;;
20861;SDS011;10591;52.532;13.348;2024-03-22T03:36:33;18.48;;;12.50;;
20861;SDS011;10591;52.532;13.348;2024-03-22T03:39:04;16.30;;;11.80;;
20861;SDS011;10591;52.532;13.348;2024-03-22T03:41:35;17.50;;;11.97;;
20861;SDS011;10591;52.532;13.348;2024-03-22T03:44:06;17.62;;;11.10;;
20861;SDS011;10591;52.532;13.348;2024-03-22T03:46:36;19.75;;;12.23;;
20861;SDS011;10591;52.532;13.348;2024-03-22T03:49:07;18.82;;;12.45;;
20861;SDS011;10591;52.532;13.348;2024-03-22T03:51:38;18.20;;;12.45;;
20861;SDS011;10591;52.532;13.348;2024-03-22T03:54:08;17.67;;;11.85;;
20861;SDS011;10591;52.532;13.348;2024-03-22T03:56:39;20.50;;;12.43;;
20861;SDS011;10591;52.532;13.348;2024-03-22T03:59:10;17.80;;;10.90;;
20861;SDS011;10591;52.532;13.348;2024-03-22T04:01:41;16.25;;;11.60;;
20861;SDS011;10591;52.532;13.348;2024-03-22T04:04:11;15.85;;;10.82;;
20861;SDS011;10591;52.532;13.348;2024-03-22T04:06:43;18.45;;;10.98;;
20861;SDS011;10591;52.532;13.348;2024-03-22T04:09:14;17.32;;;11.97;;
20861;SDS011;10591;52.532;13.348;2024-03-22T04:11:45;16.30;;;11.63;;
20861;SDS011;10591;52.532;13.348;2024-03-22T04:14:16;17.15;;;11.28;;
20861;SDS011;10591;52.532;13.348;2024-03-22T04:16:47;17.12;;;11.60;;
20861;SDS011;10591;52.532;13.348;2024-03-22T04:19:17;17.40;;;11.43;;
20861;SDS011;10591;52.532;13.348;2024-03-22T04:21:49;18.45;;;11.53;;
20861;SDS011;10591;52.532;13.348;2024-03-22T04:24:20;16.73;;;11.70;;
20861;SDS011;10591;52.532;13.348;2024-03-22T04:26:50;16.10;;;11.57;;
20861;SDS011;10591;52.532;13.348;2024-03-22T04:29:23;16.93;;;11.33;;
20861;SDS011;10591;52.532;13.348;2024-03-22T04:31:53;16.87;;;11.55;;
20861;SDS011;10591;52.532;13.348;2024-03-22T04:34:25;15.93;;;11.00;;
20861;SDS011;10591;52.532;13.348;2024-03-22T04:36:56;16.37;;;11.18;;
20861;SDS011;10591;52.532;13.348;2024-03-22T04:39:27;17.40;;;11.10;;
20861;SDS011;10591;52.532;13.348;2024-03-22T04:41:57;16.77;;;11.30;;
20861;SDS011;10591;52.532;13.348;2024-03-22T04:44:28;17.25;;;11.20;;
20861;SDS011;10591;52.532;13.348;2024-03-22T04:47:00;21.27;;;11.63;;
20861;SDS011;10591;52.532;13.348;2024-03-22T04:49:31;17.40;;;11.38;;
20861;SDS011;10591;52.532;13.348;2024-03-22T04:52:01;15.05;;;10.48;;
20861;SDS011;10591;52.532;13.348;2024-03-22T04:54:32;16.02;;;11.33;;
20861;SDS011;10591;52.532;13.348;2024-03-22T04:57:03;15.35;;;10.35;;
20861;SDS011;10591;52.532;13.348;2024-03-22T04:59:33;16.82;;;10.55;;
20861;SDS011;10591;52.532;13.348;2024-03-22T05:02:04;15.98;;;10.65;;
20861;SDS011;10591;52.532;13.348;2024-03-22T05:04:35;14.87;;;10.85;;
20861;SDS011;10591;52.532;13.348;2024-03-22T05:07:06;15.80;;;11.05;;
20861;SDS011;10591;52.532;13.348;2024-03-22T05:09:38;16.27;;;10.98;;
20861;SDS011;10591;52.532;13.348;2024-03-22T05:12:11;16.60;;;10.75;;
20861;SDS011;10591;52.532;13.348;2024-03-22T05:14:41;16.12;;;11.03;;
20861;SDS011;10591;52.532;13.348;2024-03-22T05:17:12;17.55;;;11.38;;
20861;SDS011;10591;52.532;13.348;2024-03-22T05:19:43;14.75;;;10.35;;
20861;SDS011;10591;52.532;13.348;2024-03-22T05:22:13;15.38;;;10.53;;
20861;SDS011;10591;52.532;13.348;2024-03-22T05:24:45;16.48;;;10.70;;
20861;SDS011;10591;52.532;13.348;2024-03-22T05:27:15;15.58;;;10.03;;
20861;SDS011;10591;52.532;13.348;2024-03-22T05:29:47;17.73;;;10.90;;
20861;SDS011;10591;52.532;13.348;2024-03-22T05:32:18;15.80;;;10.40;;
20861;SDS011;10591;52.532;13.348;2024-03-22T05:34:48;14.53;;;10.05;;
20861;SDS011;10591;52.532;13.348;2024-03-22T05:37:19;16.27;;;10.98;;
20861;SDS011;10591;52.532;13.348;2024-03-22T05:39:50;15.23;;;10.80;;
20861;SDS011;10591;52.532;13.348;2024-03-22T05:42:21;16.77;;;11.08;;
20861;SDS011;10591;52.532;13.348;2024-03-22T05:44:51;17.48;;;11.28;;
20861;SDS011;10591;52.532;13.348;2024-03-22T05:47:22;17.20;;;11.00;;
20861;SDS011;10591;52.532;13.348;2024-03-22T05:49:55;14.98;;;10.65;;
20861;SDS011;10591;52.532;13.348;2024-03-22T05:52:25;15.05;;;10.65;;
20861;SDS011;10591;52.532;13.348;2024-03-22T05:54:56;17.35;;;11.50;;
20861;SDS011;10591;52.532;13.348;2024-03-22T05:57:26;15.90;;;10.60;;
20861;SDS011;10591;52.532;13.348;2024-03-22T05:59:57;15.68;;;11.08;;
20861;SDS011;10591;52.532;13.348;2024-03-22T06:02:28;16.43;;;11.63;;
20861;SDS011;10591;52.532;13.348;2024-03-22T06:04:59;18.55;;;11.40;;
20861;SDS011;10591;52.532;13.348;2024-03-22T06:07:30;18.12;;;12.07;;
20861;SDS011;10591;52.532;13.348;2024-03-22T06:10:02;17.05;;;11.45;;
20861;SDS011;10591;52.532;13.348;2024-03-22T06:12:33;17.45;;;11.83;;
20861;SDS011;10591;52.532;13.348;2024-03-22T06:15:05;16.80;;;11.18;;
20861;SDS011;10591;52.532;13.348;2024-03-22T06:17:37;17.15;;;10.80;;
20861;SDS011;10591;52.532;13.348;2024-03-22T06:20:08;17.92;;;11.48;;
20861;SDS011;10591;52.532;13.348;2024-03-22T06:22:40;18.98;;;12.40;;
20861;SDS011;10591;52.532;13.348;2024-03-22T06:25:11;20.95;;;12.60;;
20861;SDS011;10591;52.532;13.348;2024-03-22T06:27:41;18.50;;;12.82;;
20861;SDS011;10591;52.532;13.348;2024-03-22T06:30:13;18.65;;;12.00;;
20861;SDS011;10591;52.532;13.348;2024-03-22T06:32:44;17.25;;;12.00;;
20861;SDS011;10591;52.532;13.348;2024-03-22T06:35:15;17.32;;;11.97;;
20861;SDS011;10591;52.532;13.348;2024-03-22T06:37:45;15.68;;;11.22;;
20861;SDS011;10591;52.532;13.348;2024-03-22T06:40:17;18.30;;;11.97;;
20861;SDS011;10591;52.532;13.348;2024-03-22T06:42:48;17.25;;;12.28;;
20861;SDS011;10591;52.532;13.348;2024-03-22T06:45:19;16.57;;;11.83;;
20861;SDS011;10591;52.532;13.348;2024-03-22T06:47:49;16.55;;;12.20;;
20861;SDS011;10591;52.532;13.348;2024-03-22T06:50:20;16.35;;;12.53;;
20861;SDS011;10591;52.532;13.348;2024-03-22T06:52:56;17.27;;;11.95;;
20861;SDS011;10591;52.532;13.348;2024-03-22T06:55:26;19.70;;;13.15;;
20861;SDS011;10591;52.532;13.348;2024-03-22T06:57:57;20.92;;;13.03;;
20861;SDS011;10591;52.532;13.348;2024-03-22T07:00:27;18.52;;;12.30;;
20861;SDS011;10591;52.532;13.348;2024-03-22T07:02:59;18.90;;;13.25;;
20861;SDS011;10591;52.532;13.348;2024-03-22T07:05:33;18.65;;;13.22;;
20861;SDS011;10591;52.532;13.348;2024-03-22T07:08:04;23.10;;;13.20;;
20861;SDS011;10591;52.532;13.348;2024-03-22T07:10:38;18.75;;;13.05;;
20861;SDS011;10591;52.532;13.348;2024-03-22T07:13:09;18.73;;;13.62;;
20861;SDS011;10591;52.532;13.348;2024-03-22T07:15:40;18.48;;;13.22;;
20861;SDS011;10591;52.532;13.348;2024-03-22T07:18:11;19.60;;;13.65;;
20861;SDS011;10591;52.532;13.348;2024-03-22T07:20:42;18.40;;;13.48;;
20861;SDS011;10591;52.532;13.348;2024-03-22T07:23:14;20.37;;;13.98;;
20861;SDS011;10591;52.532;13.348;2024-03-22T07:25:45;18.15;;;13.18;;
20861;SDS011;10591;52.532;13.348;2024-03-22T07:28:17;20.85;;;13.80;;
20861;SDS011;10591;52.532;13.348;2024-03-22T07:30:48;21.85;;;13.78;;
20861;SDS011;10591;52.532;13.348;2024-03-22T07:33:19;19.85;;;13.78;;
20861;SDS011;10591;52.532;13.348;2024-03-22T07:35:49;20.02;;;13.55;;
20861;SDS011;10591;52.532;13.348;2024-03-22T07:38:22;20.55;;;13.90;;
20861;SDS011;10591;52.532;13.348;2024-03-22T07:40:56;20.20;;;13.98;;
20861;SDS011;10591;52.532;13.348;2024-03-22T07:43:27;21.85;;;14.75;;
20861;SDS011;10591;52.532;13.348;2024-03-22T07:45:58;19.20;;;14.15;;
20861;SDS011;10591;52.532;13.348;2024-03-22T07:48:28;22.42;;;14.35;;
20861;SDS011;10591;52.532;13.348;2024-03-22T07:50:59;19.87;;;13.98;;
20861;SDS011;10591;52.532;13.348;2024-03-22T07:53:30;23.62;;;15.72;;
20861;SDS011;10591;52.532;13.348;2024-03-22T07:56:01;21.48;;;14.98;;
20861;SDS011;10591;52.532;13.348;2024-03-22T07:58:32;24.80;;;14.80;;
20861;SDS011;10591;52.532;13.348;2024-03-22T08:01:03;20.85;;;14.30;;
20861;SDS011;10591;52.532;13.348;2024-03-22T08:03:34;21.57;;;14.87;;
20861;SDS011;10591;52.532;13.348;2024-03-22T08:06:05;20.82;;;15.03;;
20861;SDS011;10591;52.532;13.348;2024-03-22T08:08:35;20.77;;;14.43;;
20861;SDS011;10591;52.532;13.348;2024-03-22T08:11:06;19.77;;;14.87;;
20861;SDS011;10591;52.532;13.348;2024-03-22T08:13:38;21.42;;;15.28;;
20861;SDS011;10591;52.532;13.348;2024-03-22T08:16:10;21.40;;;14.50;;
20861;SDS011;10591;52.532;13.348;2024-03-22T08:18:40;19.00;;;13.95;;
20861;SDS011;10591;52.532;13.348;2024-03-22T08:21:11;20.48;;;14.18;;
20861;SDS011;10591;52.532;13.348;2024-03-22T08:23:42;22.93;;;15.58;;
20861;SDS011;10591;52.532;13.348;2024-03-22T08:26:13;20.43;;;15.10;;
20861;SDS011;10591;52.532;13.348;2024-03-22T08:28:44;22.93;;;15.35;;
20861;SDS011;10591;52.532;13.348;2024-03-22T08:31:16;21.65;;;15.05;;
20861;SDS011;10591;52.532;13.348;2024-03-22T08:33:47;21.77;;;15.78;;
20861;SDS011;10591;52.532;13.348;2024-03-22T08:36:18;20.05;;;14.55;;
20861;SDS011;10591;52.532;13.348;2024-03-22T08:38:49;22.17;;;16.67;;
20861;SDS011;10591;52.532;13.348;2024-03-22T08:41:21;20.82;;;15.63;;
20861;SDS011;10591;52.532;13.348;2024-03-22T08:43:52;20.75;;;15.28;;
20861;SDS011;10591;52.532;13.348;2024-03-22T08:46:23;21.62;;;15.15;;
20861;SDS011;10591;52.532;13.348;2024-03-22T08:48:55;22.93;;;15.70;;
20861;SDS011;10591;52.532;13.348;2024-03-22T08:51:26;23.87;;;16.70;;
20861;SDS011;10591;52.532;13.348;2024-03-22T08:53:57;22.73;;;16.55;;
20861;SDS011;10591;52.532;13.348;2024-03-22T08:56:29;22.25;;;16.02;;
20861;SDS011;10591;52.532;13.348;2024-03-22T08:59:00;22.17;;;16.17;;
20861;SDS011;10591;52.532;13.348;2024-03-22T09:01:31;20.82;;;15.25;;
20861;SDS011;10591;52.532;13.348;2024-03-22T09:04:01;22.65;;;16.25;;
20861;SDS011;10591;52.532;13.348;2024-03-22T09:06:33;20.65;;;14.85;;
20861;SDS011;10591;52.532;13.348;2024-03-22T09:09:03;23.52;;;16.45;;
20861;SDS011;10591;52.532;13.348;2024-03-22T09:11:35;22.45;;;16.12;;
20861;SDS011;10591;52.532;13.348;2024-03-22T09:14:05;21.30;;;15.90;;
20861;SDS011;10591;52.532;13.348;2024-03-22T09:16:36;23.60;;;15.93;;
20861;SDS011;10591;52.532;13.348;2024-03-22T09:19:06;22.70;;;15.75;;
20861;SDS011;10591;52.532;13.348;2024-03-22T09:21:39;20.17;;;15.53;;
20861;SDS011;10591;52.532;13.348;2024-03-22T09:24:11;22.73;;;16.75;;
20861;SDS011;10591;52.532;13.348;2024-03-22T09:26:43;21.75;;;16.05;;
20861;SDS011;10591;52.532;13.348;2024-03-22T09:29:14;21.70;;;15.83;;
20861;SDS011;10591;52.532;13.348;2024-03-22T09:31:45;21.57;;;16.17;;
20861;SDS011;10591;52.532;13.348;2024-03-22T09:34:15;21.62;;;15.93;;
20861;SDS011;10591;52.532;13.348;2024-03-22T09:36:46;20.02;;;15.50;;
20861;SDS011;10591;52.532;13.348;2024-03-22T09:39:17;20.60;;;14.90;;
20861;SDS011;10591;52.532;13.348;2024-03-22T09:41:47;22.22;;;15.93;;
20861;SDS011;10591;52.532;13.348;2024-03-22T09:44:20;19.60;;;15.10;;
20861;SDS011;10591;52.532;13.348;2024-03-22T09:46:52;20.37;;;15.58;;
20861;SDS011;10591;52.532;13.348;2024-03-22T09:49:23;20.57;;;14.63;;
20861;SDS011;10591;52.532;13.348;2024-03-22T09:51:54;22.67;;;15.32;;
20861;SDS011;10591;52.532;13.348;2024-03-22T09:54:25;19.23;;;14.73;;
20861;SDS011;10591;52.532;13.348;2024-03-22T09:56:55;21.77;;;15.68;;
20861;SDS011;10591;52.532;13.348;2024-03-22T09:59:28;20.15;;;14.73;;
20861;SDS011;10591;52.532;13.348;2024-03-22T10:01:58;20.97;;;15.23;;
20861;SDS011;10591;52.532;13.348;2024-03-22T10:04:30;21.15;;;15.80;;
20861;SDS011;10591;52.532;13.348;2024-03-22T10:07:02;21.90;;;14.63;;
20861;SDS011;10591;52.532;13.348;2024-03-22T10:09:33;19.75;;;14.85;;
20861;SDS011;10591;52.532;13.348;2024-03-22T10:12:04;19.17;;;14.03;;
20861;SDS011;10591;52.532;13.348;2024-03-22T10:14:37;19.73;;;14.55;;
20861;SDS011;10591;52.532;13.348;2024-03-22T10:17:09;21.40;;;14.80;;
20861;SDS011;10591;52.532;13.348;2024-03-22T10:19:40;18.60;;;14.25;;
20861;SDS011;10591;52.532;13.348;2024-03-22T10:22:10;18.23;;;13.43;;
20861;SDS011;10591;52.532;13.348;2024-03-22T10:24:41;19.92;;;13.65;;
20861;SDS011;10591;52.532;13.348;2024-03-22T10:27:12;19.70;;;14.73;;
20861;SDS011;10591;52.532;13.348;2024-03-22T10:29:46;20.30;;;13.93;;
20861;SDS011;10591;52.532;13.348;2024-03-22T10:32:17;20.70;;;14.33;;
20861;SDS011;10591;52.532;13.348;2024-03-22T10:34:49;18.90;;;14.10;;
20861;SDS011;10591;52.532;13.348;2024-03-22T10:37:21;19.82;;;13.83;;
20861;SDS011;10591;52.532;13.348;2024-03-22T10:39:53;18.25;;;14.35;;
20861;SDS011;10591;52.532;13.348;2024-03-22T10:42:26;16.62;;;12.75;;
20861;SDS011;10591;52.532;13.348;2024-03-22T10:44:56;16.85;;;13.28;;
20861;SDS011;10591;52.532;13.348;2024-03-22T10:47:29;17.75;;;13.00;;
20861;SDS011;10591;52.532;13.348;2024-03-22T10:50:05;18.17;;;13.15;;
20861;SDS011;10591;52.532;13.348;2024-03-22T10:52:44;19.32;;;13.80;;
20861;SDS011;10591;52.532;13.348;2024-03-22T10:55:20;17.80;;;13.10;;
20861;SDS011;10591;52.532;13.348;2024-03-22T10:57:53;17.77;;;13.10;;
20861;SDS011;10591;52.532;13.348;2024-03-22T11:00:29;17.42;;;12.88;;
20861;SDS011;10591;52.532;13.348;2024-03-22T11:03:04;15.18;;;12.55;;
20861;SDS011;10591;52.532;13.348;2024-03-22T11:05:44;16.75;;;13.00;;
20861;SDS011;10591;52.532;13.348;2024-03-22T11:08:30;17.52;;;12.78;;
20861;SDS011;10591;52.532;13.348;2024-03-22T11:11:09;16.30;;;12.37;;
20861;SDS011;10591;52.532;13.348;2024-03-22T11:13:40;19.67;;;13.48;;
20861;SDS011;10591;52.532;13.348;2024-03-22T11:16:11;14.70;;;12.13;;
20861;SDS011;10591;52.532;13.348;2024-03-22T11:18:43;18.37;;;12.07;;
20861;SDS011;10591;52.532;13.348;2024-03-22T11:21:14;18.07;;;12.55;;
20861;SDS011;10591;52.532;13.348;2024-03-22T11:23:45;17.65;;;12.33;;
20861;SDS011;10591;52.532;13.348;2024-03-22T11:26:16;18.37;;;13.53;;
20861;SDS011;10591;52.532;13.348;2024-03-22T11:28:48;17.67;;;12.43;;
20861;SDS011;10591;52.532;13.348;2024-03-22T11:31:19;18.07;;;13.30;;
20861;SDS011;10591;52.532;13.348;2024-03-22T11:33:51;17.77;;;12.82;;
20861;SDS011;10591;52.532;13.348;2024-03-22T11:36:24;16.57;;;12.07;;
20861;SDS011;10591;52.532;13.348;2024-03-22T11:38:54;17.73;;;12.50;;
20861;SDS011;10591;52.532;13.348;2024-03-22T11:41:26;16.52;;;12.40;;
20861;SDS011;10591;52.532;13.348;2024-03-22T11:43:59;17.50;;;12.18;;
20861;SDS011;10591;52.532;13.348;2024-03-22T11:46:30;19.12;;;12.80;;
20861;SDS011;10591;52.532;13.348;2024-03-22T11:49:02;20.15;;;13.18;;
20861;SDS011;10591;52.532;13.348;2024-03-22T11:51:33;18.12;;;12.82;;
20861;SDS011;10591;52.532;13.348;2024-03-22T11:54:03;17.75;;;13.05;;
20861;SDS011;10591;52.532;13.348;2024-03-22T11:56:36;16.93;;;12.80;;
20861;SDS011;10591;52.532;13.348;2024-03-22T11:59:10;17.45;;;12.65;;
20861;SDS011;10591;52.532;13.348;2024-03-22T12:01:42;18.05;;;13.10;;
20861;SDS011;10591;52.532;13.348;2024-03-22T12:04:13;19.98;;;13.50;;
20861;SDS011;10591;52.532;13.348;2024-03-22T12:06:45;20.72;;;14.53;;
20861;SDS011;10591;52.532;13.348;2024-03-22T12:09:16;22.37;;;14.23;;
20861;SDS011;10591;52.532;13.348;2024-03-22T12:11:46;19.92;;;14.18;;
20861;SDS011;10591;52.532;13.348;2024-03-22T12:14:17;20.72;;;13.83;;
20861;SDS011;10591;52.532;13.348;2024-03-22T12:16:47;18.85;;;14.05;;
20861;SDS011;10591;52.532;13.348;2024-03-22T12:19:18;23.27;;;15.43;;
20861;SDS011;10591;52.532;13.348;2024-03-22T12:21:52;20.40;;;14.93;;
20861;SDS011;10591;52.532;13.348;2024-03-22T12:24:23;20.35;;;14.80;;
20861;SDS011;10591;52.532;13.348;2024-03-22T12:26:54;22.85;;;14.93;;
20861;SDS011;10591;52.532;13.348;2024-03-22T12:29:25;20.70;;;14.98;;
20861;SDS011;10591;52.532;13.348;2024-03-22T12:31:56;21.60;;;15.13;;
20861;SDS011;10591;52.532;13.348;2024-03-22T12:34:29;19.65;;;14.30;;
20861;SDS011;10591;52.532;13.348;2024-03-22T12:37:01;22.95;;;15.95;;
20861;SDS011;10591;52.532;13.348;2024-03-22T12:39:32;21.50;;;15.05;;
20861;SDS011;10591;52.532;13.348;2024-03-22T12:42:04;23.20;;;15.45;;
20861;SDS011;10591;52.532;13.348;2024-03-22T12:44:34;22.60;;;14.75;;
20861;SDS011;10591;52.532;13.348;2024-03-22T12:47:05;22.52;;;15.80;;
20861;SDS011;10591;52.532;13.348;2024-03-22T12:49:36;20.95;;;14.55;;
20861;SDS011;10591;52.532;13.348;2024-03-22T12:52:07;23.30;;;14.70;;
20861;SDS011;10591;52.532;13.348;2024-03-22T12:54:40;24.98;;;16.07;;
20861;SDS011;10591;52.532;13.348;2024-03-22T12:57:11;24.52;;;15.53;;
20861;SDS011;10591;52.532;13.348;2024-03-22T12:59:42;20.88;;;14.68;;
20861;SDS011;10591;52.532;13.348;2024-03-22T13:02:14;24.02;;;15.75;;
20861;SDS011;10591;52.532;13.348;2024-03-22T13:04:45;22.67;;;14.85;;
20861;SDS011;10591;52.532;13.348;2024-03-22T13:07:16;23.07;;;15.03;;
20861;SDS011;10591;52.532;13.348;2024-03-22T13:09:46;21.27;;;15.10;;
20861;SDS011;10591;52.532;13.348;2024-03-22T13:12:18;24.18;;;16.37;;
20861;SDS011;10591;52.532;13.348;2024-03-22T13:14:48;24.32;;;15.20;;
20861;SDS011;10591;52.532;13.348;2024-03-22T13:17:22;25.92;;;16.55;;
20861;SDS011;10591;52.532;13.348;2024-03-22T13:19:53;23.42;;;15.58;;
20861;SDS011;10591;52.532;13.348;2024-03-22T13:22:24;22.42;;;14.65;;
20861;SDS011;10591;52.532;13.348;2024-03-22T13:24:57;20.55;;;13.93;;
20861;SDS011;10591;52.532;13.348;2024-03-22T13:27:28;17.95;;;12.75;;
20861;SDS011;10591;52.532;13.348;2024-03-22T13:30:03;19.52;;;13.00;;
20861;SDS011;10591;52.532;13.348;2024-03-22T13:32:34;18.27;;;12.25;;
20861;SDS011;10591;52.532;13.348;2024-03-22T13:35:08;17.82;;;12.63;;
20861;SDS011;10591;52.532;13.348;2024-03-22T13:37:39;17.05;;;11.88;;
20861;SDS011;10591;52.532;13.348;2024-03-22T13:40:13;18.23;;;12.18;;
20861;SDS011;10591;52.532;13.348;2024-03-22T13:42:44;15.70;;;11.63;;
20861;SDS011;10591;52.532;13.348;2024-03-22T13:45:16;17.25;;;11.95;;
20861;SDS011;10591;52.532;13.348;2024-03-22T13:47:46;18.05;;;11.03;;
20861;SDS011;10591;52.532;13.348;2024-03-22T13:50:17;17.40;;;12.00;;
20861;SDS011;10591;52.532;13.348;2024-03-22T13:52:48;17.37;;;11.73;;
20861;SDS011;10591;52.532;13.348;2024-03-22T13:55:20;17.48;;;11.20;;
20861;SDS011;10591;52.532;13.348;2024-03-22T13:57:50;15.85;;;10.65;;
20861;SDS011;10591;52.532;13.348;2024-03-22T14:00:22;14.90;;;10.28;;
20861;SDS011;10591;52.532;13.348;2024-03-22T14:02:54;14.40;;;10.28;;
20861;SDS011;10591;52.532;13.348;2024-03-22T14:05:25;16.32;;;9.95;;
20861;SDS011;10591;52.532;13.348;2024-03-22T14:07:56;14.20;;;9.78;;
20861;SDS011;10591;52.532;13.348;2024-03-22T14:10:32;15.55;;;10.35;;
20861;SDS011;10591;52.532;13.348;2024-03-22T14:13:03;15.65;;;10.03;;
20861;SDS011;10591;52.532;13.348;2024-03-22T14:15:37;14.75;;;10.35;;
20861;SDS011;10591;52.532;13.348;2024-03-22T14:18:10;15.05;;;10.18;;
20861;SDS011;10591;52.532;13.348;2024-03-22T14:20:41;16.25;;;10.72;;
20861;SDS011;10591;52.532;13.348;2024-03-22T14:23:12;14.23;;;10.32;;
20861;SDS011;10591;52.532;13.348;2024-03-22T14:25:42;14.10;;;10.30;;
20861;SDS011;10591;52.532;13.348;2024-03-22T14:28:16;16.30;;;11.53;;
20861;SDS011;10591;52.532;13.348;2024-03-22T14:30:46;15.80;;;11.18;;